• Join FlightAware (Why Join?)
  • Login
  • US Flag 
12:20AM EDT


 

Airport Tracker/Info


-or-


 

Live Flight TrackerFlight Track Log ✈ CTL14 ✈ 20-Apr-2013 ✈ KOSU - KBAK

Flight Track Log - Related Links

Times and Time Zones

All times are in EDT time to prevent confusion due to time zone crossing. See the CTL14 flight status page for this flight to view local times or setup timezone preferences in your user account.

Time Position Orientation Groundspeed Altitude Reporting Facility
EDT Latitude Longitude Course Direction KTS MPH feet Rate Location/Type
02:25AM 40.0706 -83.1086 250° West 105 121 1,900  Level Indianapolis Center
02:26AM 40.0631 -83.1356 250° West 106 122 2,900 1,260 Climbing Indianapolis Center
02:26AM 40.0597 -83.1456 246° West 105 121 3,200 840 Climbing Indianapolis Center
02:27AM 40.0544 -83.1642 250° West 104 120 3,800 960 Climbing Indianapolis Center
02:27AM 40.0511 -83.1800 255° West 101 116 4,200 900 Climbing Indianapolis Center
02:28AM 40.0456 -83.2017 251° West 105 121 4,700 900 Climbing Indianapolis Center
02:28AM 40.0419 -83.2197 255° West 110 127 5,100 780 Climbing Indianapolis Center
02:29AM 40.0358 -83.2378 246° West 105 121 5,500 660 Climbing Indianapolis Center
02:29AM 40.0311 -83.2539 249° West 104 120 5,800 300 Climbing Indianapolis Center
02:30AM 40.0250 -83.2742 249° West 106 122 5,800 60 Level Indianapolis Center
02:30AM 40.0200 -83.2933 251° West 117 135 5,900  Climbing Indianapolis Center
02:31AM 40.0128 -83.3161 248° West 114 131 5,800  Descending Indianapolis Center
02:31AM 40.0047 -83.3322 237° Southwest 126 145 5,900 60 Climbing Indianapolis Center
02:32AM 39.9967 -83.3567 247° West 120 138 5,900  Level Indianapolis Center
02:32AM 39.9911 -83.3742 247° West 126 145 5,900 -600 Level Indianapolis Center
02:33AM 39.9831 -83.4014 249° West 127 146 5,300 -600 Descending Indianapolis Center
02:33AM 39.9769 -83.4269 253° West 147 169 5,300 -240 Level Indianapolis Center
02:34AM 39.9708 -83.4508 252° West 137 158 5,100 -300 Descending Indianapolis Center
02:34AM 39.9653 -83.4744 253° West 141 162 5,000 -300 Descending Indianapolis Center
02:35AM 39.9594 -83.4997 253° West 140 161 4,800 -420 Descending Indianapolis Center
02:35AM 39.9531 -83.5247 252° West 142 163 4,600 -240 Descending Indianapolis Center
02:36AM 39.9472 -83.5483 252° West 141 162 4,600 -240 Level Indianapolis Center
02:36AM 39.9414 -83.5722 252° West 139 160 4,400 -120 Descending Indianapolis Center
02:37AM 39.9339 -83.5958 248° West 140 161 4,500 -120 Climbing Indianapolis Center
02:37AM 39.9253 -83.6192 244° Southwest 138 159 4,300 -420 Descending Indianapolis Center
02:38AM 39.9192 -83.6414 250° West 138 159 4,100 -300 Descending Indianapolis Center
02:38AM 39.9133 -83.6667 253° West 141 162 4,000  Descending Indianapolis Center
02:39AM 39.9072 -83.6889 250° West 138 159 4,100  Climbing Indianapolis Center
02:39AM 39.9017 -83.7117 252° West 127 146 4,000 -120 Descending Indianapolis Center
02:40AM 39.8958 -83.7333 251° West 133 153 4,000 60 Level Indianapolis Center
02:40AM 39.8903 -83.7536 250° West 128 147 4,100  Climbing Indianapolis Center
02:41AM 39.8833 -83.7767 249° West 129 148 4,000  Descending Indianapolis Center
02:41AM 39.8764 -83.7981 247° West 124 143 4,100 60 Climbing Indianapolis Center
02:42AM 39.8703 -83.8181 248° West 126 145 4,100 -120 Level Indianapolis Center
02:42AM 39.8667 -83.8431 259° West 128 147 4,000 -120 Descending Indianapolis Center
02:43AM 39.8600 -83.8625 246° West 126 145 4,000 -120 Level Indianapolis Center
02:43AM 39.8550 -83.8878 256° West 133 153 3,900 -120 Descending Indianapolis Center
02:44AM 39.8489 -83.9075 248° West 127 146 3,900  Level Indianapolis Center
02:44AM 39.8433 -83.9297 252° West 126 145 3,900  Level Indianapolis Center
02:45AM 39.8375 -83.9506 250° West 127 146 3,900  Level Indianapolis Center
02:45AM 39.8317 -83.9717 250° West 126 145 3,900 60 Level Indianapolis Center
02:46AM 39.8269 -83.9936 254° West 125 144 4,000 60 Climbing Indianapolis Center
02:46AM 39.8200 -84.0164 248° West 125 144 4,000  Level Indianapolis Center
02:47AM 39.8142 -84.0358 249° West 125 144 4,000  Level Indianapolis Center
02:47AM 39.8083 -84.0583 251° West 129 148 4,000  Level Indianapolis Center
02:48AM 39.8025 -84.0808 251° West 127 146 4,000  Level Indianapolis Center
02:48AM 39.7964 -84.1031 250° West 126 145 4,000  Level Indianapolis Center
02:49AM 39.7908 -84.1233 250° West 126 145 4,000  Level Indianapolis Center
02:49AM 39.7847 -84.1450 250° West 129 148 4,000  Level Indianapolis Center
02:50AM 39.7783 -84.1672 249° West 127 146 4,000  Level Indianapolis Center
02:50AM 39.7728 -84.1894 252° West 128 147 4,000  Level Indianapolis Center
02:51AM 39.7667 -84.2117 250° West 128 147 4,000 60 Level Indianapolis Center
02:51AM 39.7611 -84.2342 252° West 128 147 4,100  Climbing Indianapolis Center
02:52AM 39.7547 -84.2558 249° West 128 147 4,000 -120 Descending Indianapolis Center
02:52AM 39.7467 -84.2811 247° West 129 148 4,000  Level Indianapolis Center
02:53AM 39.7419 -84.2997 252° West 128 147 4,000  Level Indianapolis Center
02:53AM 39.7350 -84.3231 249° West 129 148 4,000  Level Indianapolis Center
02:54AM 39.7294 -84.3442 251° West 129 148 4,000  Level Indianapolis Center
02:54AM 39.7231 -84.3675 250° West 130 150 4,000  Level Indianapolis Center
02:55AM 39.7175 -84.3878 250° West 128 147 4,000  Level Indianapolis Center
02:55AM 39.7114 -84.4094 250° West 127 146 4,000  Level Indianapolis Center
02:56AM 39.7069 -84.4244 249° West 128 147 4,000  Level Indianapolis Center
02:56AM 39.6972 -84.4536 247° West 125 144 4,000 60 Level Indianapolis Center
02:57AM 39.6944 -84.4672 255° West 127 146 4,100  Climbing Indianapolis Center
02:57AM 39.6856 -84.4956 248° West 127 146 4,000 -120 Descending Indianapolis Center
02:58AM 39.6814 -84.5100 249° West 126 145 4,000  Level Indianapolis Center
02:59AM 39.6692 -84.5531 250° West 126 145 4,000  Level Indianapolis Center
03:00AM 39.6567 -84.5975 250° West 128 147 4,000  Level Indianapolis Center
03:01AM 39.6442 -84.6417 250° West 129 148 4,000  Level Indianapolis Center
03:02AM 39.6297 -84.6853 247° West 129 148 4,000  Level Indianapolis Center
03:03AM 39.6186 -84.7289 252° West 128 147 4,000  Level Indianapolis Center
03:04AM 39.6053 -84.7769 250° West 127 146 4,000  Level Indianapolis Center
03:06AM 39.5833 -84.8500 249° West 128 147 4,000 -60 Level Cincinnati TRACON
03:07AM 39.5667 -84.8833 237° Southwest 125 144 3,900  Descending Cincinnati TRACON
03:08AM 39.5667 -84.9333 270° West 124 143 4,000 60 Climbing Cincinnati TRACON
03:09AM 39.5500 -84.9667 237° Southwest 129 148 4,100  Climbing Cincinnati TRACON
03:10AM 39.5333 -85.0167 247° West 132 152 4,000  Descending Cincinnati TRACON
03:11AM 39.5167 -85.0667 247° West 126 145 4,100  Climbing Cincinnati TRACON
03:12AM 39.5000 -85.1000 237° Southwest 133 153 4,000 -60 Descending Cincinnati TRACON
03:13AM 39.5000 -85.1500 270° West 130 150 4,000  Level Cincinnati TRACON
03:14AM 39.4833 -85.2000 247° West 131 151 4,000 -120 Level Cincinnati TRACON
03:15AM 39.4500 -85.2667 237° Southwest 129 148 3,800 -180 Descending Indianapolis TRACON
03:16AM 39.4333 -85.3167 247° West 142 163 3,500 -300 Descending Indianapolis TRACON
03:17AM 39.4333 -85.3667 270° West 144 166 3,200 -300 Descending Indianapolis TRACON
03:18AM 39.4167 -85.4167 247° West 141 162 3,000 -120 Descending Indianapolis TRACON
03:19AM 39.4000 -85.4667 247° West 138 159 3,000  Level Indianapolis TRACON
03:20AM 39.3833 -85.5000 237° Southwest 137 158 3,100  Climbing Indianapolis TRACON
03:21AM 39.3667 -85.5500 247° West 139 160 3,100 -60 Level Indianapolis TRACON
03:22AM 39.3500 -85.6000 247° West 144 166 3,000 -120 Descending Indianapolis TRACON